createdAt,value
2018-01-27T00:02:21.360Z,19.77
2018-01-27T00:04:48.927Z,20.75
2018-01-27T00:07:16.497Z,18.27
2018-01-27T00:09:44.091Z,18.77
2018-01-27T00:12:11.775Z,17.08
2018-01-27T00:14:39.379Z,18.52
2018-01-27T00:17:06.984Z,19.55
2018-01-27T00:19:34.554Z,16.75
2018-01-27T00:22:02.120Z,18.60
2018-01-27T00:24:29.722Z,17.17
2018-01-27T00:26:57.325Z,19.40
2018-01-27T00:29:24.940Z,19.23
2018-01-27T00:31:52.762Z,19.17
2018-01-27T00:34:20.324Z,18.98
2018-01-27T00:36:48.130Z,19.50
2018-01-27T00:39:16.457Z,17.50
2018-01-27T00:41:44.110Z,19.85
2018-01-27T00:44:11.699Z,17.10
2018-01-27T00:46:39.290Z,21.52
2018-01-27T00:49:06.921Z,20.90
2018-01-27T00:51:34.531Z,21.75
2018-01-27T00:54:02.115Z,18.98
2018-01-27T00:56:29.721Z,19.70
2018-01-27T00:58:58.088Z,19.62
2018-01-27T01:01:25.718Z,20.10
2018-01-27T01:03:53.361Z,20.42
2018-01-27T01:06:21.718Z,20.70
2018-01-27T01:08:49.353Z,20.17
2018-01-27T01:11:16.936Z,20.23
2018-01-27T01:13:44.503Z,20.58
2018-01-27T01:16:12.412Z,21.35
2018-01-27T01:18:39.974Z,23.25
2018-01-27T01:21:07.605Z,21.87
2018-01-27T01:23:35.931Z,22.75
2018-01-27T01:26:03.554Z,22.62
2018-01-27T01:28:31.914Z,23.55
2018-01-27T01:30:59.505Z,22.85
2018-01-27T01:33:27.108Z,23.55
2018-01-27T01:35:54.715Z,23.98
2018-01-27T01:38:22.312Z,21.33
2018-01-27T01:40:49.917Z,22.67
2018-01-27T01:43:24.393Z,23.05
2018-01-27T01:45:51.972Z,25.12
2018-01-27T01:48:20.236Z,25.20
2018-01-27T01:50:48.046Z,25.35
2018-01-27T01:53:15.657Z,22.45
2018-01-27T01:55:44.040Z,26.55
2018-01-27T01:58:12.431Z,24.42
2018-01-27T02:00:40.035Z,25.17
2018-01-27T02:03:07.630Z,24.87
2018-01-27T02:05:35.192Z,25.15
2018-01-27T02:08:02.839Z,24.73
2018-01-27T02:10:31.174Z,26.50
2018-01-27T02:12:58.771Z,27.70
2018-01-27T02:15:26.476Z,26.83
2018-01-27T02:17:54.809Z,26.40
2018-01-27T02:20:22.394Z,28.20
2018-01-27T02:22:49.957Z,27.98
2018-01-27T02:25:17.524Z,27.02
2018-01-27T02:27:45.096Z,28.10
2018-01-27T02:30:12.661Z,27.15
2018-01-27T02:32:40.252Z,24.30
2018-01-27T02:35:07.829Z,26.95
2018-01-27T02:37:35.408Z,26.52
2018-01-27T02:40:03.796Z,26.15
2018-01-27T02:42:31.396Z,27.25
2018-01-27T02:45:00.275Z,26.15
2018-01-27T02:47:27.897Z,26.73
2018-01-27T02:49:55.517Z,25.45
2018-01-27T02:52:23.214Z,26.98
2018-01-27T02:54:51.733Z,29.05
2018-01-27T02:57:19.388Z,28.02
2018-01-27T02:59:47.761Z,27.02
2018-01-27T03:02:15.333Z,29.83
2018-01-27T03:04:42.920Z,27.17
2018-01-27T03:07:10.544Z,26.55
2018-01-27T03:09:38.125Z,26.75
2018-01-27T03:12:05.692Z,25.58
2018-01-27T03:14:33.256Z,25.83
2018-01-27T03:17:00.859Z,26.95
2018-01-27T03:19:28.456Z,27.02
2018-01-27T03:21:56.837Z,26.23
2018-01-27T03:24:24.404Z,29.58
2018-01-27T03:26:51.982Z,27.70
2018-01-27T03:29:20.348Z,28.48
2018-01-27T03:31:48.126Z,27.00
2018-01-27T03:34:15.683Z,29.10
2018-01-27T03:36:43.278Z,30.40
2018-01-27T03:39:10.873Z,29.33
2018-01-27T03:41:38.504Z,28.08
2018-01-27T03:44:06.185Z,29.87
2018-01-27T03:46:33.742Z,29.45
2018-01-27T03:49:01.333Z,31.62
2018-01-27T03:51:28.927Z,28.77
2018-01-27T03:53:56.542Z,27.13
2018-01-27T03:56:24.140Z,28.27
2018-01-27T03:58:51.772Z,29.87
2018-01-27T04:01:20.131Z,26.83
2018-01-27T04:03:47.859Z,25.62
2018-01-27T04:06:15.468Z,25.90
2018-01-27T04:08:43.207Z,29.75
2018-01-27T04:11:10.780Z,28.17
2018-01-27T04:13:38.340Z,30.02
2018-01-27T04:16:06.209Z,26.23
2018-01-27T04:18:33.891Z,27.90
2018-01-27T04:21:01.755Z,26.70
2018-01-27T04:23:30.107Z,28.90
2018-01-27T04:25:57.695Z,28.12
2018-01-27T04:28:25.332Z,30.10
2018-01-27T04:30:52.920Z,31.80
2018-01-27T04:33:20.485Z,32.00
2018-01-27T04:35:48.076Z,34.35
2018-01-27T04:38:15.675Z,32.17
2018-01-27T04:40:43.318Z,32.50
2018-01-27T04:43:10.878Z,33.22
2018-01-27T04:45:38.445Z,31.73
2018-01-27T04:48:06.138Z,32.60
2018-01-27T04:50:33.709Z,30.80
2018-01-27T04:53:01.929Z,31.70
2018-01-27T04:55:30.284Z,30.70
2018-01-27T04:57:58.081Z,30.35
2018-01-27T05:00:26.540Z,31.62
2018-01-27T05:02:54.212Z,31.60
2018-01-27T05:05:21.815Z,33.03
2018-01-27T05:07:49.395Z,30.88
2018-01-27T05:10:17.020Z,28.83
2018-01-27T05:12:44.592Z,29.25
2018-01-27T05:15:12.224Z,32.00
2018-01-27T05:17:40.607Z,27.95
2018-01-27T05:20:08.190Z,31.40
2018-01-27T05:22:36.519Z,28.85
2018-01-27T05:25:04.097Z,30.73
2018-01-27T05:27:31.707Z,26.90
2018-01-27T05:29:59.320Z,31.15
2018-01-27T05:32:26.883Z,30.23
2018-01-27T05:34:54.513Z,28.55
2018-01-27T05:37:22.161Z,28.33
2018-01-27T05:39:49.775Z,28.90
2018-01-27T05:42:17.399Z,28.42
2018-01-27T05:44:45.108Z,31.00
2018-01-27T05:47:12.734Z,32.42
2018-01-27T05:49:40.863Z,29.63
2018-01-27T05:52:08.500Z,30.42
2018-01-27T05:54:36.072Z,29.42
2018-01-27T05:57:03.652Z,30.45
2018-01-27T05:59:31.244Z,31.90
2018-01-27T06:01:58.846Z,30.92
2018-01-27T06:04:27.210Z,32.05
2018-01-27T06:06:54.809Z,29.00
2018-01-27T06:09:22.443Z,29.75
2018-01-27T06:11:50.041Z,29.45
2018-01-27T06:14:17.630Z,34.38
2018-01-27T06:16:45.191Z,30.52
2018-01-27T06:19:13.157Z,32.65
2018-01-27T06:21:40.733Z,33.00
2018-01-27T06:24:08.367Z,34.33
2018-01-27T06:26:36.005Z,35.72
2018-01-27T06:29:03.703Z,33.90
2018-01-27T06:31:31.327Z,34.08
2018-01-27T06:33:58.928Z,31.62
2018-01-27T06:36:26.502Z,32.42
2018-01-27T06:38:54.875Z,32.13
2018-01-27T06:41:22.575Z,33.58
2018-01-27T06:43:51.446Z,30.08
2018-01-27T06:46:19.034Z,34.72
2018-01-27T06:48:46.683Z,32.10
2018-01-27T06:51:14.260Z,28.35
2018-01-27T06:53:41.932Z,32.08
2018-01-27T06:56:09.525Z,29.90
2018-01-27T06:58:37.227Z,33.25
2018-01-27T07:01:05.619Z,32.22
2018-01-27T07:03:33.992Z,32.05
2018-01-27T07:06:02.344Z,28.67
2018-01-27T07:08:29.940Z,30.17
2018-01-27T07:10:57.659Z,31.98
2018-01-27T07:13:25.251Z,31.83
2018-01-27T07:15:52.883Z,29.05
2018-01-27T07:18:21.260Z,30.95
2018-01-27T07:20:48.910Z,32.75
2018-01-27T07:23:16.637Z,31.73
2018-01-27T07:25:44.509Z,31.02
2018-01-27T07:28:12.876Z,31.85
2018-01-27T07:30:40.480Z,29.98
2018-01-27T07:33:08.067Z,31.10
2018-01-27T07:35:35.635Z,32.88
2018-01-27T07:38:03.234Z,29.92
2018-01-27T07:40:30.835Z,28.58
2018-01-27T07:42:58.431Z,29.58
2018-01-27T07:45:26.760Z,32.33
2018-01-27T07:47:54.366Z,28.87
2018-01-27T07:50:22.158Z,36.55
2018-01-27T07:52:50.532Z,29.70
2018-01-27T07:55:18.181Z,27.33
2018-01-27T07:57:45.788Z,28.00
2018-01-27T08:00:14.157Z,27.75
2018-01-27T08:02:41.761Z,28.33
2018-01-27T08:05:10.153Z,31.67
2018-01-27T08:07:38.583Z,33.72
2018-01-27T08:10:06.176Z,29.23
2018-01-27T08:12:33.844Z,31.98
2018-01-27T08:15:01.637Z,27.80
2018-01-27T08:17:29.240Z,32.85
2018-01-27T08:19:57.627Z,30.58
2018-01-27T08:22:26.046Z,30.35
2018-01-27T08:24:53.675Z,29.27
2018-01-27T08:27:21.307Z,30.23
2018-01-27T08:29:48.916Z,30.77
2018-01-27T08:32:16.526Z,30.52
2018-01-27T08:34:44.886Z,27.08
2018-01-27T08:37:12.461Z,25.00
2018-01-27T08:39:40.044Z,28.17
2018-01-27T08:42:07.721Z,30.10
2018-01-27T08:44:35.435Z,27.80
2018-01-27T08:47:03.050Z,28.20
2018-01-27T08:49:30.621Z,25.75
2018-01-27T08:51:58.320Z,28.10
2018-01-27T08:54:25.952Z,26.33
2018-01-27T08:56:54.332Z,25.65
2018-01-27T08:59:22.113Z,25.85
2018-01-27T09:01:50.022Z,25.62
2018-01-27T09:04:17.608Z,25.45
2018-01-27T09:06:45.336Z,23.08
2018-01-27T09:09:12.941Z,23.75
2018-01-27T09:11:40.674Z,24.58
2018-01-27T09:14:08.257Z,24.10
2018-01-27T09:16:35.829Z,22.98
2018-01-27T09:19:03.432Z,24.40
2018-01-27T09:21:31.377Z,25.02
2018-01-27T09:23:59.000Z,25.33
2018-01-27T09:26:26.933Z,26.60
2018-01-27T09:28:54.560Z,23.73
2018-01-27T09:31:23.032Z,22.77
2018-01-27T09:33:50.670Z,22.08
2018-01-27T09:36:18.244Z,22.55
2018-01-27T09:38:45.844Z,22.52
2018-01-27T09:41:13.472Z,25.85
2018-01-27T09:43:41.118Z,23.17
2018-01-27T09:46:08.888Z,24.58
2018-01-27T09:48:37.383Z,22.33
2018-01-27T09:51:05.219Z,24.17
2018-01-27T09:53:32.827Z,24.10
2018-01-27T09:56:00.452Z,22.20
2018-01-27T09:58:28.042Z,24.80
2018-01-27T10:00:55.689Z,22.37
2018-01-27T10:03:23.314Z,26.05
2018-01-27T10:05:51.604Z,27.70
2018-01-27T10:08:19.184Z,23.80
2018-01-27T10:10:46.923Z,23.40
2018-01-27T10:13:14.507Z,23.17
2018-01-27T10:15:42.227Z,23.85
2018-01-27T10:18:10.714Z,23.42
2018-01-27T10:20:39.102Z,26.20
2018-01-27T10:23:07.463Z,25.75
2018-01-27T10:25:35.076Z,24.60
2018-01-27T10:28:02.725Z,24.70
2018-01-27T10:30:30.284Z,23.02
2018-01-27T10:32:58.538Z,22.58
2018-01-27T10:35:26.915Z,23.58
2018-01-27T10:37:54.709Z,24.45
2018-01-27T10:40:22.340Z,25.15
2018-01-27T10:42:50.219Z,25.85
2018-01-27T10:45:17.929Z,24.27
2018-01-27T10:47:45.608Z,25.30
2018-01-27T10:50:14.915Z,23.77
2018-01-27T10:52:42.532Z,24.33
2018-01-27T10:55:10.937Z,24.50
2018-01-27T10:57:38.514Z,21.90
2018-01-27T11:00:06.859Z,22.77
2018-01-27T11:02:34.621Z,23.65
2018-01-27T11:05:02.247Z,22.70
2018-01-27T11:07:29.836Z,23.48
2018-01-27T11:09:58.171Z,20.95
2018-01-27T11:12:25.780Z,21.30
2018-01-27T11:14:53.436Z,22.25
2018-01-27T11:17:21.045Z,21.98
2018-01-27T11:19:49.441Z,21.30
2018-01-27T11:22:18.706Z,22.42
2018-01-27T11:24:46.303Z,21.50
2018-01-27T11:27:15.422Z,23.75
2018-01-27T11:29:43.037Z,22.58
2018-01-27T11:32:10.605Z,22.15
2018-01-27T11:34:38.200Z,22.85
2018-01-27T11:37:05.786Z,19.95
2018-01-27T11:39:33.378Z,23.80
2018-01-27T11:42:01.764Z,21.70
2018-01-27T11:44:29.540Z,20.15
2018-01-27T11:46:57.924Z,20.85
2018-01-27T11:49:25.495Z,19.42
2018-01-27T11:51:53.076Z,20.25
2018-01-27T11:54:20.775Z,18.92
2018-01-27T11:56:48.353Z,20.65
2018-01-27T11:59:15.986Z,20.33
2018-01-27T12:01:44.385Z,21.35
2018-01-27T12:04:12.058Z,19.70
2018-01-27T12:06:39.665Z,20.00
2018-01-27T12:09:07.276Z,19.87
2018-01-27T12:11:34.861Z,20.63
2018-01-27T12:14:02.842Z,20.33
2018-01-27T12:16:30.955Z,20.93
2018-01-27T12:18:59.373Z,21.67
2018-01-27T12:21:28.374Z,21.90
2018-01-27T12:23:57.005Z,20.63
2018-01-27T12:26:25.380Z,18.27
2018-01-27T12:28:53.965Z,19.57
2018-01-27T12:31:21.686Z,21.95
2018-01-27T12:33:50.127Z,20.67
2018-01-27T12:36:17.894Z,22.00
2018-01-27T12:38:46.763Z,17.85
2018-01-27T12:41:14.890Z,18.25
2018-01-27T12:43:42.820Z,16.85
2018-01-27T12:46:11.769Z,18.52
2018-01-27T12:48:40.263Z,17.77
2018-01-27T12:51:08.026Z,19.12
2018-01-27T12:59:39.177Z,19.37
2018-01-27T13:02:06.958Z,20.55
2018-01-27T13:04:35.694Z,20.10
2018-01-27T13:07:04.203Z,20.52
2018-01-27T13:09:32.125Z,22.60
2018-01-27T13:12:01.416Z,18.60
2018-01-27T13:14:47.264Z,18.95
2018-01-27T13:17:15.889Z,20.73
2018-01-27T13:19:43.936Z,21.10
2018-01-27T13:22:12.905Z,20.45
2018-01-27T13:24:52.213Z,21.97
2018-01-27T13:27:19.775Z,21.70
2018-01-27T13:29:48.365Z,19.73
2018-01-27T13:32:16.711Z,22.00
2018-01-27T13:34:44.320Z,19.95
2018-01-27T13:37:12.804Z,18.95
2018-01-27T13:39:40.424Z,20.50
2018-01-27T13:42:08.057Z,19.42
2018-01-27T13:44:36.449Z,19.10
2018-01-27T13:47:04.801Z,19.70
2018-01-27T13:49:32.432Z,21.23
2018-01-27T13:52:00.047Z,20.70
2018-01-27T13:54:43.830Z,18.20
2018-01-27T13:57:11.422Z,18.43
2018-01-27T13:59:39.024Z,17.47
2018-01-27T14:02:06.655Z,17.17
2018-01-27T14:04:34.282Z,15.93
2018-01-27T14:07:01.880Z,16.57
2018-01-27T14:09:29.460Z,15.90
2018-01-27T14:11:57.087Z,16.60
2018-01-27T14:14:41.154Z,17.20
2018-01-27T14:17:09.978Z,14.60
2018-01-27T14:19:37.720Z,17.90
2018-01-27T14:22:06.306Z,16.40
2018-01-27T14:24:34.441Z,16.90
2018-01-27T14:27:02.535Z,16.40
2018-01-27T14:29:30.124Z,17.17
2018-01-27T14:31:57.728Z,16.37
2018-01-27T14:34:25.332Z,17.20
2018-01-27T14:36:52.907Z,17.37
2018-01-27T14:39:20.507Z,17.57
2018-01-27T14:41:48.124Z,15.60
2018-01-27T14:44:17.392Z,17.40
2018-01-27T14:46:44.960Z,22.30
2018-01-27T14:49:12.621Z,17.37
2018-01-27T14:51:53.672Z,15.97
2018-01-27T14:57:02.231Z,16.10
2018-01-27T14:59:29.890Z,16.57
2018-01-27T15:01:57.500Z,19.07
2018-01-27T15:04:25.927Z,18.07
2018-01-27T15:06:53.539Z,19.40
2018-01-27T15:09:21.186Z,20.20
2018-01-27T15:11:48.802Z,19.87
2018-01-27T15:14:33.632Z,18.00
2018-01-27T15:17:01.244Z,18.07
2018-01-27T15:19:28.935Z,17.60
2018-01-27T15:21:57.290Z,19.23
2018-01-27T15:24:24.922Z,19.60
2018-01-27T15:26:52.568Z,18.40
2018-01-27T15:29:20.258Z,18.20
2018-01-27T15:31:48.624Z,20.80
2018-01-27T15:34:17.742Z,21.23
2018-01-27T15:36:46.499Z,17.70
2018-01-27T15:39:14.104Z,16.60
2018-01-27T15:41:41.775Z,17.43
2018-01-27T15:44:09.380Z,18.05
2018-01-27T15:46:37.764Z,16.73
2018-01-27T15:49:06.136Z,17.80
2018-01-27T15:51:33.749Z,17.77
2018-01-27T15:54:01.336Z,19.12
2018-01-27T15:56:43.455Z,17.62
2018-01-27T15:59:11.075Z,18.58
2018-01-27T16:01:39.750Z,19.33
2018-01-27T16:04:07.373Z,17.70
2018-01-27T16:06:35.845Z,18.02
2018-01-27T16:09:04.186Z,20.08
2018-01-27T16:11:31.849Z,19.45
2018-01-27T16:13:59.516Z,19.62
2018-01-27T16:16:27.303Z,23.00
2018-01-27T16:18:55.033Z,20.23
2018-01-27T16:21:22.813Z,20.02
2018-01-27T16:23:50.523Z,18.70
2018-01-27T16:26:18.559Z,17.65
2018-01-27T16:28:46.296Z,18.30
2018-01-27T16:31:24.245Z,18.20
2018-01-27T16:33:51.871Z,17.45
2018-01-27T16:36:30.709Z,17.37
2018-01-27T16:38:58.314Z,18.30
2018-01-27T16:41:25.985Z,18.17
2018-01-27T16:43:54.538Z,18.50
2018-01-27T16:46:25.297Z,17.37
2018-01-27T16:49:07.180Z,18.77
2018-01-27T16:51:34.765Z,19.33
2018-01-27T16:54:02.510Z,19.40
2018-01-27T16:56:46.663Z,19.27
2018-01-27T16:59:14.271Z,17.52
2018-01-27T17:01:41.972Z,19.10
2018-01-27T17:04:09.799Z,21.62
2018-01-27T17:06:38.210Z,22.15
2018-01-27T17:09:05.837Z,26.20
2018-01-27T17:11:33.460Z,27.20
2018-01-27T17:14:01.052Z,97.37
2018-01-27T17:16:30.123Z,23.90
2018-01-27T17:18:57.696Z,22.75
2018-01-27T17:21:25.314Z,21.90
2018-01-27T17:23:53.759Z,22.40
2018-01-27T17:26:21.384Z,23.10
2018-01-27T17:28:49.801Z,22.73
2018-01-27T17:31:17.431Z,21.45
2018-01-27T17:33:59.372Z,23.00
2018-01-27T17:36:27.907Z,23.55
2018-01-27T17:38:55.601Z,23.42
2018-01-27T17:41:23.243Z,21.85
2018-01-27T17:43:50.894Z,23.67
2018-01-27T17:46:18.547Z,24.50
2018-01-27T17:48:46.133Z,23.02
2018-01-27T17:51:14.499Z,24.75
2018-01-27T17:53:42.081Z,26.23
2018-01-27T17:56:21.727Z,24.73
2018-01-27T17:58:49.403Z,25.50
2018-01-27T18:01:17.177Z,22.17
2018-01-27T18:03:44.893Z,22.83
2018-01-27T18:06:12.542Z,24.60
2018-01-27T18:08:40.874Z,29.77
2018-01-27T18:11:08.504Z,35.13
2018-01-27T18:13:36.121Z,31.90
2018-01-27T18:16:03.697Z,30.98
2018-01-27T18:18:31.363Z,33.60
2018-01-27T18:20:58.992Z,33.88
2018-01-27T18:23:27.342Z,32.83
2018-01-27T18:25:54.907Z,33.63
2018-01-27T18:28:22.522Z,32.30
2018-01-27T18:30:50.104Z,31.27
2018-01-27T18:33:17.685Z,30.35
2018-01-27T18:35:46.015Z,34.83
2018-01-27T18:38:13.631Z,34.42
2018-01-27T18:40:41.223Z,35.28
2018-01-27T18:43:09.589Z,36.38
2018-01-27T18:45:37.224Z,31.00
2018-01-27T18:48:04.865Z,34.22
2018-01-27T18:50:32.560Z,32.95
2018-01-27T18:53:00.141Z,31.30
2018-01-27T18:55:38.221Z,31.58
2018-01-27T18:58:11.074Z,31.45
2018-01-27T19:00:38.689Z,27.40
2018-01-27T19:03:07.042Z,27.90
2018-01-27T19:05:34.656Z,29.02
2018-01-27T19:08:02.257Z,29.05
2018-01-27T19:10:29.864Z,27.80
2018-01-27T19:12:57.449Z,28.25
2018-01-27T19:15:25.047Z,26.42
2018-01-27T19:17:53.523Z,29.30
2018-01-27T19:20:21.099Z,26.27
2018-01-27T19:22:48.717Z,26.48
2018-01-27T19:25:16.332Z,27.15
2018-01-27T19:27:44.010Z,27.95
2018-01-27T19:30:11.598Z,27.70
2018-01-27T19:32:39.956Z,29.70
2018-01-27T19:35:08.431Z,27.95
2018-01-27T19:37:36.083Z,28.15
2018-01-27T19:40:03.673Z,29.05
2018-01-27T19:42:31.274Z,26.95
2018-01-27T19:44:58.905Z,26.60
2018-01-27T19:47:26.519Z,26.05
2018-01-27T19:49:54.156Z,27.95
2018-01-27T19:52:21.769Z,26.52
2018-01-27T19:55:02.711Z,26.20
2018-01-27T19:57:30.317Z,24.77
2018-01-27T19:59:58.001Z,30.42
2018-01-27T20:02:25.594Z,31.30
2018-01-27T20:04:53.171Z,27.90
2018-01-27T20:07:21.545Z,30.70
2018-01-27T20:09:49.208Z,27.15
2018-01-27T20:12:18.481Z,30.02
2018-01-27T20:14:46.049Z,29.90
2018-01-27T20:17:13.672Z,28.17
2018-01-27T20:19:41.720Z,26.95
2018-01-27T20:22:09.351Z,29.75
2018-01-27T20:24:37.736Z,30.15
2018-01-27T20:27:06.283Z,28.42
2018-01-27T20:29:33.980Z,31.15
2018-01-27T20:32:01.604Z,31.37
2018-01-27T20:34:30.831Z,31.52
2018-01-27T20:36:58.401Z,28.30
2018-01-27T20:39:26.927Z,31.12
2018-01-27T20:41:54.505Z,30.62
2018-01-27T20:44:22.129Z,28.20
2018-01-27T20:46:49.745Z,28.40
2018-01-27T20:49:17.354Z,28.35
2018-01-27T20:51:45.740Z,29.70
2018-01-27T20:54:14.090Z,28.80
2018-01-27T20:56:51.226Z,27.55
2018-01-27T20:59:18.833Z,28.48
2018-01-27T21:01:46.427Z,26.30
2018-01-27T21:04:14.005Z,26.17
2018-01-27T21:06:41.633Z,27.83
2018-01-27T21:09:10.011Z,51.53
2018-01-27T21:11:38.370Z,36.22
2018-01-27T21:14:05.963Z,33.67
2018-01-27T21:16:33.593Z,26.60
2018-01-27T21:19:01.180Z,27.23
2018-01-27T21:21:28.757Z,27.00
2018-01-27T21:23:56.405Z,25.37
2018-01-27T21:26:24.008Z,27.35
2018-01-27T21:28:58.281Z,25.20
2018-01-27T21:31:26.658Z,26.52
2018-01-27T21:33:54.220Z,26.98
2018-01-27T21:36:21.808Z,27.98
2018-01-27T21:38:49.582Z,26.60
2018-01-27T21:41:17.164Z,26.62
2018-01-27T21:43:45.519Z,26.90
2018-01-27T21:46:13.179Z,28.10
2018-01-27T21:48:40.787Z,27.85
2018-01-27T21:51:08.367Z,40.88
2018-01-27T21:53:35.963Z,38.17
2018-01-27T21:56:15.179Z,29.30
2018-01-27T21:58:42.924Z,29.52
2018-01-27T22:01:10.550Z,30.95
2018-01-27T22:03:38.935Z,30.48
2018-01-27T22:06:07.362Z,30.98
2018-01-27T22:08:35.717Z,32.88
2018-01-27T22:11:03.287Z,32.67
2018-01-27T22:13:30.866Z,30.73
2018-01-27T22:15:58.442Z,28.95
2018-01-27T22:18:26.038Z,34.35
2018-01-27T22:20:54.377Z,32.25
2018-01-27T22:23:22.019Z,28.20
2018-01-27T22:25:49.603Z,31.27
2018-01-27T22:28:17.196Z,30.95
2018-01-27T22:30:44.768Z,32.75
2018-01-27T22:33:12.332Z,35.95
2018-01-27T22:35:40.190Z,31.67
2018-01-27T22:38:08.506Z,32.50
2018-01-27T22:40:36.111Z,35.83
2018-01-27T22:43:04.090Z,57.35
2018-01-27T22:45:31.665Z,36.30
2018-01-27T22:48:01.520Z,31.50
2018-01-27T22:50:29.873Z,33.30
2018-01-27T22:52:57.721Z,32.47
2018-01-27T22:55:38.944Z,32.85
2018-01-27T22:58:06.538Z,32.72
2018-01-27T23:00:34.111Z,36.28
2018-01-27T23:03:01.731Z,33.95
2018-01-27T23:05:30.060Z,34.25
2018-01-27T23:07:57.658Z,36.80
2018-01-27T23:10:26.281Z,33.78
2018-01-27T23:12:54.645Z,33.45
2018-01-27T23:15:22.301Z,35.70
2018-01-27T23:17:49.900Z,37.45
2018-01-27T23:20:17.527Z,30.35
2018-01-27T23:22:45.213Z,31.73
2018-01-27T23:25:12.882Z,32.75
2018-01-27T23:27:40.723Z,31.27
2018-01-27T23:30:08.396Z,28.05
2018-01-27T23:32:35.978Z,26.50
2018-01-27T23:35:04.339Z,32.08
2018-01-27T23:37:31.943Z,32.78
2018-01-27T23:40:13.221Z,35.17
2018-01-27T23:42:40.856Z,40.72
2018-01-27T23:45:08.425Z,32.30
2018-01-27T23:47:36.032Z,42.03
2018-01-27T23:50:16.508Z,33.00
2018-01-27T23:52:44.111Z,35.25
2018-01-27T23:55:23.556Z,32.85
2018-01-27T23:57:51.390Z,33.03
